D/T METAR WX W/DIR W/SPE G/SPE TEMP DEWP
9/12/19 11:50 EGOS 091150Z 33019G30KT 9999 FEW030 08/01 Q1014 NOSIG RMK BLU BLU NNW (330°) 21.9mph 34.5mph 8°C 1°C
9/12/19 11:20 EGOS 091120Z 33021G31KT 9999 FEW030 08/01 Q1013 NOSIG RMK BLU BLU NNW (330°) 24.2mph 35.7mph 8°C 1°C
9/12/19 10:50 EGOS 091050Z 33019KT 9999 FEW018CB 08/01 Q1013 NOSIG RMK BLU BLU NNW (330°) 21.9mph 8°C 1°C
9/12/19 10:20 EGOS 091020Z 32017G31KT 9999 FEW018TCU 08/01 Q1012 NOSIG RMK BLU BLU NW (320°) 19.6mph 35.7mph 8°C 1°C
9/12/19 09:50 EGOS 090950Z 32015KT 9999 FEW018TCU 08/01 Q1011 TEMPO 32018G28KT RMK BLU TEMPO BLU NW (320°) 17.3mph 8°C 1°C
9/12/19 09:20 EGOS 090920Z 33013G23KT 9999 FEW015CB 08/01 Q1010 TEMPO 32018G28KT RMK BLU TEMPO BLU NNW (330°) 15.0mph 26.5mph 8°C 1°C
9/12/19 08:50 EGOS 090850Z 33017G28KT 9999 FEW016 07/02 Q1009 NOSIG RMK BLU BLU NNW (330°) 19.6mph 32.2mph 7°C 2°C
9/12/19 07:50 EGOS 090750Z 32016KT 9999 FEW016 07/03 Q1006 TEMPO 32018G28KT RMK BLU TEMPO BLU NW (320°) 18.4mph 7°C 3°C
9/12/19 06:50 EGOS 090650Z 32016KT 9999 FEW030 07/03 Q1004 RMK BLU NW (320°) 18.4mph 7°C 3°C
9/12/19 05:50 EGOS 090550Z 32019G31KT 9999 SCT027 08/04 Q1000 RMK BLU NW (320°) 21.9mph 35.7mph 8°C 4°C
9/12/19 04:50 EGOS 090450Z AUTO 31017KT 9999 RA FEW028/// BKN032/// 08/04 Q0997 RA NW (310°) 19.6mph 8°C 4°C
9/12/19 03:50 EGOS 090350Z AUTO 32020G30KT 9999 FEW024/// BKN040/// 08/05 Q0994 RERA NW (320°) 23.0mph 34.5mph 8°C 5°C
9/12/19 02:50 EGOS 090250Z AUTO 30011KT 9999 -RA FEW015/// BKN023/// BKN038/// 07/06 Q0991 -RA WNW (300°) 12.7mph 7°C 6°C
9/12/19 01:50 EGOS 090150Z AUTO 24003KT 9999 RA BKN024/// SCT035/// 06/05 Q0988 RA WSW (240°) 3.5mph 6°C 5°C
9/12/19 00:50 EGOS 090050Z AUTO 25014KT 8000 RA FEW024/// BKN029/// 06/04 Q0988 RA WSW (250°) 16.1mph 6°C 4°C
8/12/19 23:50 EGOS 082350Z AUTO 24012KT 9999 SCT031/// SCT037/// 06/04 Q0988 RERA WSW (240°) 13.8mph 6°C 4°C
8/12/19 22:50 EGOS 082250Z AUTO 23010KT 9999 -RA BKN020/// 06/05 Q0988 -RA SW (230°) 11.5mph 6°C 5°C
8/12/19 21:50 EGOS 082150Z AUTO 21009KT 6000 RA SCT023/// BKN035/// 06/04 Q0988 RA SSW (210°) 10.4mph 6°C 4°C
8/12/19 20:50 EGOS 082050Z AUTO 20012KT 9999 -RA FEW025/// SCT036/// 06/04 Q0988 -RA SSW (200°) 13.8mph 6°C 4°C
8/12/19 19:50 EGOS 081950Z AUTO 22016KT 9999 FEW034/// SCT200/// 06/02 Q0989 RERA SW (220°) 18.4mph 6°C 2°C
8/12/19 18:50 EGOS 081850Z AUTO 22015KT 9999 -RA FEW029/// 06/03 Q0990 -RA SW (220°) 17.3mph 6°C 3°C
8/12/19 17:50 EGOS 081750Z AUTO 23016KT 9999 FEW150/// 06/02 Q0991 RERA SW (230°) 18.4mph 6°C 2°C
8/12/19 16:50 EGOS 081650Z AUTO 24018KT 9999 FEW140/// 06/02 Q0992 RERA WSW (240°) 20.7mph 6°C 2°C
8/12/19 15:50 EGOS 081550Z AUTO 25020KT 9000 -RA SCT030/// SCT090/// 07/03 Q0993 -RA WSW (250°) 23.0mph 7°C 3°C
8/12/19 14:50 EGOS 081450Z AUTO 25020KT 9999 NCD 07/02 Q0993 RERA WSW (250°) 23.0mph 7°C 2°C
8/12/19 13:50 EGOS 081350Z AUTO 24020KT 9999 NCD 07/03 Q0994 RERA WSW (240°) 23.0mph 7°C 3°C
8/12/19 12:50 EGOS 081250Z AUTO 23022KT 9999 FEW050/// 08/03 Q0994 RERA SW (230°) 25.3mph 8°C 3°C
8/12/19 11:50 EGOS 081150Z AUTO 24026G37KT 9999 -RA FEW032/// SCT037/// 07/03 Q0995 -RA WSW (240°) 29.9mph 42.6mph 7°C 3°C
8/12/19 10:50 EGOS 081050Z AUTO 25024G34KT 9999 FEW034/// SCT040/// 07/03 Q0996 RERA WSW (250°) 27.6mph 39.1mph 7°C 3°C
8/12/19 09:50 EGOS 080950Z AUTO 24020KT 9999 FEW140/// 08/03 Q0996 WSW (240°) 23.0mph 8°C 3°C
8/12/19 08:50 EGOS 080850Z AUTO 24022G33KT 9999 NCD 08/04 Q0996 WSW (240°) 25.3mph 38.0mph 8°C 4°C
8/12/19 07:50 EGOS 080750Z AUTO 24016KT 9999 NCD 07/04 Q0996 RERA WSW (240°) 18.4mph 7°C 4°C
8/12/19 06:50 EGOS 080650Z AUTO 23012KT 9999 RA FEW029/// SCT060/// 08/05 Q0996 RA SW (230°) 13.8mph 8°C 5°C
8/12/19 05:50 EGOS 080550Z AUTO 27013KT 9999 BKN050/// 08/04 Q0996 RERA W (270°) 15.0mph 8°C 4°C
8/12/19 04:50 EGOS 080450Z AUTO 25014KT 9999 SCT033/// BKN043/// 10/05 Q0995 WSW (250°) 16.1mph 10°C 5°C
8/12/19 03:50 EGOS 080350Z AUTO 25015KT 9999 BKN037/// 10/07 Q0995 WSW (250°) 17.3mph 10°C 7°C
8/12/19 02:50 EGOS 080250Z AUTO 26013KT 9999 BKN014/// BKN020/// 12/10 Q0994 RERA W (260°) 15.0mph 12°C 10°C
8/12/19 01:50 EGOS 080150Z AUTO 22017KT 9999 SCT020/// BKN025/// 12/09 Q0994 RERA SW (220°) 19.6mph 12°C 9°C
8/12/19 00:50 EGOS 080050Z AUTO 21017KT 9999 BKN018/// BKN034/// 11/09 Q0995 RERA SSW (210°) 19.6mph 11°C 9°C
7/12/19 23:50 EGOS 072350Z AUTO 19016KT 9999 -RA BKN016/// 10/08 Q0997 -RA S (190°) 18.4mph 10°C 8°C
7/12/19 22:50 EGOS 072250Z AUTO 19020KT 9999 -RA SCT018/// BKN045/// 10/08 Q0998 -RA S (190°) 23.0mph 10°C 8°C
7/12/19 21:50 EGOS 072150Z AUTO 19018KT 9999 BKN018/// SCT130/// BKN160/// 10/07 Q1000 S (190°) 20.7mph 10°C 7°C
7/12/19 20:50 EGOS 072050Z AUTO 20020KT 9999 SCT021/// BKN170/// BKN220/// 10/07 Q1002 SSW (200°) 23.0mph 10°C 7°C
7/12/19 19:50 EGOS 071950Z AUTO 20016KT 9999 BKN017/// 10/07 Q1004 SSW (200°) 18.4mph 10°C 7°C
7/12/19 18:50 EGOS 071850Z AUTO 18012KT 9999 BKN017/// 10/07 Q1005 S (180°) 13.8mph 10°C 7°C
7/12/19 17:50 EGOS 071750Z AUTO 20012KT 9999 BKN016/// 10/07 Q1006 SSW (200°) 13.8mph 10°C 7°C
7/12/19 16:50 EGOS 071650Z AUTO 21012KT 9999 BKN015/// 10/08 Q1008 SSW (210°) 13.8mph 10°C 8°C
7/12/19 15:50 EGOS 071550Z AUTO 23013KT 9999 BKN016/// 10/07 Q1008 SW (230°) 15.0mph 10°C 7°C